sensor_id;sensor_type;location;lat;lon;timestamp;P1;durP1;ratioP1;P2;durP2;ratioP2
3267;SDS011;1646;52.450;13.326;2023-05-10T00:01:53;7.47;;;4.23;;
3267;SDS011;1646;52.450;13.326;2023-05-10T00:06:51;9.80;;;6.40;;
3267;SDS011;1646;52.450;13.326;2023-05-10T00:11:49;8.60;;;5.30;;
3267;SDS011;1646;52.450;13.326;2023-05-10T00:16:47;13.07;;;5.23;;
3267;SDS011;1646;52.450;13.326;2023-05-10T00:21:47;5.50;;;4.80;;
3267;SDS011;1646;52.450;13.326;2023-05-10T00:26:45;6.43;;;4.67;;
3267;SDS011;1646;52.450;13.326;2023-05-10T00:31:43;6.67;;;5.23;;
3267;SDS011;1646;52.450;13.326;2023-05-10T00:36:42;10.07;;;5.17;;
3267;SDS011;1646;52.450;13.326;2023-05-10T00:41:41;7.50;;;5.27;;
3267;SDS011;1646;52.450;13.326;2023-05-10T00:46:39;8.40;;;5.33;;
3267;SDS011;1646;52.450;13.326;2023-05-10T00:51:38;6.87;;;5.37;;
3267;SDS011;1646;52.450;13.326;2023-05-10T00:56:39;7.43;;;5.20;;
3267;SDS011;1646;52.450;13.326;2023-05-10T01:01:39;9.93;;;6.13;;
3267;SDS011;1646;52.450;13.326;2023-05-10T01:06:37;9.40;;;5.00;;
3267;SDS011;1646;52.450;13.326;2023-05-10T01:11:35;9.00;;;5.70;;
3267;SDS011;1646;52.450;13.326;2023-05-10T01:16:36;8.53;;;5.80;;
3267;SDS011;1646;52.450;13.326;2023-05-10T01:21:38;7.10;;;5.30;;
3267;SDS011;1646;52.450;13.326;2023-05-10T01:32:26;8.37;;;5.30;;
3267;SDS011;1646;52.450;13.326;2023-05-10T01:37:32;7.90;;;5.80;;
3267;SDS011;1646;52.450;13.326;2023-05-10T01:42:38;6.80;;;5.40;;
3267;SDS011;1646;52.450;13.326;2023-05-10T01:47:45;8.00;;;6.10;;
3267;SDS011;1646;52.450;13.326;2023-05-10T01:52:49;7.90;;;5.70;;
3267;SDS011;1646;52.450;13.326;2023-05-10T01:57:52;7.53;;;5.50;;
3267;SDS011;1646;52.450;13.326;2023-05-10T02:02:58;16.37;;;5.70;;
3267;SDS011;1646;52.450;13.326;2023-05-10T02:07:59;8.27;;;5.40;;
3267;SDS011;1646;52.450;13.326;2023-05-10T02:12:58;9.17;;;6.00;;
3267;SDS011;1646;52.450;13.326;2023-05-10T02:17:59;8.80;;;6.87;;
3267;SDS011;1646;52.450;13.326;2023-05-10T02:22:59;8.80;;;6.23;;
3267;SDS011;1646;52.450;13.326;2023-05-10T02:28:01;12.37;;;6.30;;
3267;SDS011;1646;52.450;13.326;2023-05-10T02:33:03;11.47;;;5.60;;
3267;SDS011;1646;52.450;13.326;2023-05-10T02:38:02;8.33;;;6.10;;
3267;SDS011;1646;52.450;13.326;2023-05-10T02:43:02;10.37;;;6.77;;
3267;SDS011;1646;52.450;13.326;2023-05-10T02:48:05;9.10;;;5.67;;
3267;SDS011;1646;52.450;13.326;2023-05-10T02:53:05;9.10;;;5.90;;
3267;SDS011;1646;52.450;13.326;2023-05-10T02:58:08;7.93;;;5.87;;
3267;SDS011;1646;52.450;13.326;2023-05-10T03:03:07;9.80;;;6.37;;
3267;SDS011;1646;52.450;13.326;2023-05-10T03:08:06;6.70;;;5.57;;
3267;SDS011;1646;52.450;13.326;2023-05-10T03:13:06;8.40;;;6.20;;
3267;SDS011;1646;52.450;13.326;2023-05-10T03:18:12;8.87;;;6.20;;
3267;SDS011;1646;52.450;13.326;2023-05-10T03:23:19;12.30;;;5.60;;
3267;SDS011;1646;52.450;13.326;2023-05-10T03:28:21;8.60;;;5.70;;
3267;SDS011;1646;52.450;13.326;2023-05-10T03:33:23;8.17;;;5.50;;
3267;SDS011;1646;52.450;13.326;2023-05-10T03:38:22;10.70;;;6.40;;
3267;SDS011;1646;52.450;13.326;2023-05-10T03:43:20;6.50;;;5.47;;
3267;SDS011;1646;52.450;13.326;2023-05-10T03:48:19;8.10;;;5.40;;
3267;SDS011;1646;52.450;13.326;2023-05-10T03:53:18;7.03;;;5.43;;
3267;SDS011;1646;52.450;13.326;2023-05-10T03:58:17;9.23;;;6.10;;
3267;SDS011;1646;52.450;13.326;2023-05-10T04:03:16;5.23;;;4.50;;
3267;SDS011;1646;52.450;13.326;2023-05-10T04:08:14;9.53;;;4.73;;
3267;SDS011;1646;52.450;13.326;2023-05-10T04:13:14;5.20;;;4.70;;
3267;SDS011;1646;52.450;13.326;2023-05-10T04:18:13;7.93;;;5.20;;
3267;SDS011;1646;52.450;13.326;2023-05-10T04:23:11;7.17;;;4.87;;
3267;SDS011;1646;52.450;13.326;2023-05-10T04:28:10;9.93;;;5.03;;
3267;SDS011;1646;52.450;13.326;2023-05-10T04:33:10;7.90;;;5.13;;
3267;SDS011;1646;52.450;13.326;2023-05-10T04:38:08;9.43;;;5.83;;
3267;SDS011;1646;52.450;13.326;2023-05-10T04:43:06;9.63;;;4.90;;
3267;SDS011;1646;52.450;13.326;2023-05-10T04:48:04;7.20;;;4.57;;
3267;SDS011;1646;52.450;13.326;2023-05-10T04:53:05;16.30;;;5.07;;
3267;SDS011;1646;52.450;13.326;2023-05-10T04:58:03;7.57;;;4.73;;
3267;SDS011;1646;52.450;13.326;2023-05-10T05:03:01;11.23;;;5.30;;
3267;SDS011;1646;52.450;13.326;2023-05-10T05:08:00;8.17;;;4.90;;
3267;SDS011;1646;52.450;13.326;2023-05-10T05:12:59;6.20;;;4.60;;
3267;SDS011;1646;52.450;13.326;2023-05-10T05:17:57;9.57;;;4.70;;
3267;SDS011;1646;52.450;13.326;2023-05-10T05:22:56;7.23;;;4.17;;
3267;SDS011;1646;52.450;13.326;2023-05-10T05:27:54;6.77;;;4.23;;
3267;SDS011;1646;52.450;13.326;2023-05-10T05:32:54;12.47;;;5.03;;
3267;SDS011;1646;52.450;13.326;2023-05-10T05:37:53;7.10;;;4.13;;
3267;SDS011;1646;52.450;13.326;2023-05-10T05:42:52;8.07;;;4.40;;
3267;SDS011;1646;52.450;13.326;2023-05-10T05:47:50;8.90;;;3.90;;
3267;SDS011;1646;52.450;13.326;2023-05-10T05:52:50;5.37;;;4.20;;
3267;SDS011;1646;52.450;13.326;2023-05-10T05:57:48;7.53;;;4.37;;
3267;SDS011;1646;52.450;13.326;2023-05-10T06:02:46;7.80;;;4.73;;
3267;SDS011;1646;52.450;13.326;2023-05-10T06:07:45;10.03;;;3.87;;
3267;SDS011;1646;52.450;13.326;2023-05-10T06:12:44;5.00;;;3.07;;
3267;SDS011;1646;52.450;13.326;2023-05-10T06:17:42;7.90;;;3.67;;
3267;SDS011;1646;52.450;13.326;2023-05-10T06:22:41;5.50;;;3.47;;
3267;SDS011;1646;52.450;13.326;2023-05-10T06:27:39;5.30;;;3.20;;
3267;SDS011;1646;52.450;13.326;2023-05-10T06:32:38;3.37;;;2.70;;
3267;SDS011;1646;52.450;13.326;2023-05-10T06:37:37;10.47;;;3.77;;
3267;SDS011;1646;52.450;13.326;2023-05-10T06:42:35;8.50;;;4.00;;
3267;SDS011;1646;52.450;13.326;2023-05-10T06:47:34;3.30;;;2.93;;
3267;SDS011;1646;52.450;13.326;2023-05-10T06:52:36;4.80;;;2.70;;
3267;SDS011;1646;52.450;13.326;2023-05-10T06:57:34;7.53;;;2.67;;
3267;SDS011;1646;52.450;13.326;2023-05-10T07:02:32;4.50;;;2.77;;
3267;SDS011;1646;52.450;13.326;2023-05-10T07:07:31;6.10;;;2.80;;
3267;SDS011;1646;52.450;13.326;2023-05-10T07:12:30;5.60;;;3.10;;
3267;SDS011;1646;52.450;13.326;2023-05-10T07:17:28;4.80;;;3.20;;
3267;SDS011;1646;52.450;13.326;2023-05-10T07:22:27;4.00;;;2.80;;
3267;SDS011;1646;52.450;13.326;2023-05-10T07:27:25;5.20;;;2.33;;
3267;SDS011;1646;52.450;13.326;2023-05-10T07:32:25;35.10;;;3.50;;
3267;SDS011;1646;52.450;13.326;2023-05-10T07:37:23;6.73;;;3.70;;
3267;SDS011;1646;52.450;13.326;2023-05-10T07:42:22;3.40;;;2.90;;
3267;SDS011;1646;52.450;13.326;2023-05-10T07:47:20;2.50;;;2.20;;
3267;SDS011;1646;52.450;13.326;2023-05-10T07:52:19;4.33;;;2.83;;
3267;SDS011;1646;52.450;13.326;2023-05-10T07:57:18;5.57;;;3.53;;
3267;SDS011;1646;52.450;13.326;2023-05-10T08:02:16;6.67;;;2.37;;
3267;SDS011;1646;52.450;13.326;2023-05-10T08:07:14;4.13;;;2.73;;
3267;SDS011;1646;52.450;13.326;2023-05-10T08:12:14;4.77;;;2.90;;
3267;SDS011;1646;52.450;13.326;2023-05-10T08:17:13;3.37;;;2.97;;
3267;SDS011;1646;52.450;13.326;2023-05-10T08:22:14;4.37;;;2.43;;
3267;SDS011;1646;52.450;13.326;2023-05-10T08:27:12;6.20;;;2.70;;
3267;SDS011;1646;52.450;13.326;2023-05-10T08:32:12;6.17;;;2.60;;
3267;SDS011;1646;52.450;13.326;2023-05-10T08:37:10;9.70;;;2.87;;
3267;SDS011;1646;52.450;13.326;2023-05-10T08:42:10;3.13;;;2.77;;
3267;SDS011;1646;52.450;13.326;2023-05-10T08:47:10;4.90;;;2.57;;
3267;SDS011;1646;52.450;13.326;2023-05-10T08:52:10;9.43;;;2.90;;
3267;SDS011;1646;52.450;13.326;2023-05-10T08:57:10;3.47;;;3.17;;
3267;SDS011;1646;52.450;13.326;2023-05-10T09:02:10;4.47;;;2.57;;
3267;SDS011;1646;52.450;13.326;2023-05-10T09:07:13;4.77;;;2.63;;
3267;SDS011;1646;52.450;13.326;2023-05-10T09:12:12;6.87;;;2.90;;
3267;SDS011;1646;52.450;13.326;2023-05-10T09:17:13;4.70;;;2.70;;
3267;SDS011;1646;52.450;13.326;2023-05-10T09:22:12;4.37;;;3.00;;
3267;SDS011;1646;52.450;13.326;2023-05-10T09:27:10;4.40;;;2.83;;
3267;SDS011;1646;52.450;13.326;2023-05-10T09:32:09;4.23;;;2.50;;
3267;SDS011;1646;52.450;13.326;2023-05-10T09:37:11;4.70;;;2.20;;
3267;SDS011;1646;52.450;13.326;2023-05-10T09:42:10;2.77;;;2.47;;
3267;SDS011;1646;52.450;13.326;2023-05-10T09:47:08;3.70;;;2.20;;
3267;SDS011;1646;52.450;13.326;2023-05-10T09:52:06;6.57;;;2.40;;
3267;SDS011;1646;52.450;13.326;2023-05-10T09:57:06;4.10;;;3.03;;
3267;SDS011;1646;52.450;13.326;2023-05-10T10:02:18;7.83;;;2.60;;
3267;SDS011;1646;52.450;13.326;2023-05-10T10:07:17;4.50;;;2.60;;
3267;SDS011;1646;52.450;13.326;2023-05-10T10:12:22;4.13;;;2.57;;
3267;SDS011;1646;52.450;13.326;2023-05-10T10:17:21;4.73;;;2.50;;
3267;SDS011;1646;52.450;13.326;2023-05-10T10:22:19;2.57;;;2.30;;
3267;SDS011;1646;52.450;13.326;2023-05-10T10:27:19;2.30;;;2.10;;
3267;SDS011;1646;52.450;13.326;2023-05-10T10:32:24;3.77;;;2.83;;
3267;SDS011;1646;52.450;13.326;2023-05-10T10:37:41;6.93;;;2.40;;
3267;SDS011;1646;52.450;13.326;2023-05-10T10:42:46;4.90;;;2.57;;
3267;SDS011;1646;52.450;13.326;2023-05-10T10:47:46;2.83;;;2.23;;
3267;SDS011;1646;52.450;13.326;2023-05-10T10:52:44;3.20;;;2.63;;
3267;SDS011;1646;52.450;13.326;2023-05-10T10:57:47;3.10;;;2.80;;
3267;SDS011;1646;52.450;13.326;2023-05-10T11:02:48;3.53;;;2.33;;
3267;SDS011;1646;52.450;13.326;2023-05-10T11:07:54;3.37;;;2.13;;
3267;SDS011;1646;52.450;13.326;2023-05-10T11:12:54;6.03;;;2.40;;
3267;SDS011;1646;52.450;13.326;2023-05-10T11:17:58;6.80;;;2.83;;
3267;SDS011;1646;52.450;13.326;2023-05-10T11:22:57;4.00;;;2.10;;
3267;SDS011;1646;52.450;13.326;2023-05-10T11:27:56;4.03;;;2.20;;
3267;SDS011;1646;52.450;13.326;2023-05-10T11:32:55;4.00;;;2.23;;
3267;SDS011;1646;52.450;13.326;2023-05-10T11:37:53;5.43;;;3.50;;
3267;SDS011;1646;52.450;13.326;2023-05-10T11:42:52;2.70;;;1.97;;
3267;SDS011;1646;52.450;13.326;2023-05-10T11:47:55;2.63;;;2.30;;
3267;SDS011;1646;52.450;13.326;2023-05-10T11:52:54;7.30;;;2.17;;
3267;SDS011;1646;52.450;13.326;2023-05-10T11:57:53;5.13;;;2.70;;
3267;SDS011;1646;52.450;13.326;2023-05-10T12:02:53;4.40;;;2.50;;
3267;SDS011;1646;52.450;13.326;2023-05-10T12:07:51;5.70;;;2.73;;
3267;SDS011;1646;52.450;13.326;2023-05-10T12:12:51;5.00;;;2.90;;
3267;SDS011;1646;52.450;13.326;2023-05-10T12:17:50;5.10;;;2.33;;
3267;SDS011;1646;52.450;13.326;2023-05-10T12:22:53;6.27;;;3.03;;
3267;SDS011;1646;52.450;13.326;2023-05-10T12:27:56;4.13;;;2.63;;
3267;SDS011;1646;52.450;13.326;2023-05-10T12:32:59;3.83;;;3.20;;
3267;SDS011;1646;52.450;13.326;2023-05-10T12:38:01;2.67;;;2.47;;
3267;SDS011;1646;52.450;13.326;2023-05-10T12:43:22;4.73;;;2.47;;
3267;SDS011;1646;52.450;13.326;2023-05-10T12:48:20;4.63;;;2.70;;
3267;SDS011;1646;52.450;13.326;2023-05-10T12:53:20;8.33;;;2.17;;
3267;SDS011;1646;52.450;13.326;2023-05-10T12:58:18;2.40;;;2.20;;
3267;SDS011;1646;52.450;13.326;2023-05-10T13:03:23;6.13;;;2.83;;
3267;SDS011;1646;52.450;13.326;2023-05-10T13:08:22;6.27;;;2.73;;
3267;SDS011;1646;52.450;13.326;2023-05-10T13:13:21;4.23;;;2.60;;
3267;SDS011;1646;52.450;13.326;2023-05-10T13:18:19;8.87;;;2.40;;
3267;SDS011;1646;52.450;13.326;2023-05-10T13:23:17;4.20;;;2.57;;
3267;SDS011;1646;52.450;13.326;2023-05-10T13:28:17;6.10;;;2.50;;
3267;SDS011;1646;52.450;13.326;2023-05-10T13:33:15;4.17;;;2.77;;
3267;SDS011;1646;52.450;13.326;2023-05-10T13:38:13;6.27;;;2.87;;
3267;SDS011;1646;52.450;13.326;2023-05-10T13:43:11;5.23;;;2.83;;
3267;SDS011;1646;52.450;13.326;2023-05-10T13:48:11;7.10;;;3.40;;
3267;SDS011;1646;52.450;13.326;2023-05-10T13:53:09;4.23;;;2.50;;
3267;SDS011;1646;52.450;13.326;2023-05-10T13:58:08;2.37;;;2.17;;
3267;SDS011;1646;52.450;13.326;2023-05-10T14:03:06;9.83;;;2.57;;
3267;SDS011;1646;52.450;13.326;2023-05-10T14:08:24;3.23;;;2.37;;
3267;SDS011;1646;52.450;13.326;2023-05-10T14:13:24;9.40;;;2.83;;
3267;SDS011;1646;52.450;13.326;2023-05-10T14:18:22;5.57;;;2.67;;
3267;SDS011;1646;52.450;13.326;2023-05-10T14:23:21;7.77;;;2.40;;
3267;SDS011;1646;52.450;13.326;2023-05-10T14:28:22;7.53;;;2.40;;
3267;SDS011;1646;52.450;13.326;2023-05-10T14:33:21;3.47;;;3.10;;
3267;SDS011;1646;52.450;13.326;2023-05-10T14:38:19;3.87;;;2.70;;
3267;SDS011;1646;52.450;13.326;2023-05-10T14:43:18;5.60;;;2.40;;
3267;SDS011;1646;52.450;13.326;2023-05-10T14:48:17;6.73;;;2.60;;
3267;SDS011;1646;52.450;13.326;2023-05-10T14:53:15;5.20;;;2.77;;
3267;SDS011;1646;52.450;13.326;2023-05-10T14:58:14;2.60;;;2.40;;
3267;SDS011;1646;52.450;13.326;2023-05-10T15:03:12;6.47;;;3.00;;
3267;SDS011;1646;52.450;13.326;2023-05-10T15:08:13;3.40;;;2.20;;
3267;SDS011;1646;52.450;13.326;2023-05-10T15:13:11;6.17;;;2.20;;
3267;SDS011;1646;52.450;13.326;2023-05-10T15:18:09;2.97;;;2.60;;
3267;SDS011;1646;52.450;13.326;2023-05-10T15:23:08;3.23;;;2.50;;
3267;SDS011;1646;52.450;13.326;2023-05-10T15:28:07;6.67;;;2.93;;
3267;SDS011;1646;52.450;13.326;2023-05-10T15:33:05;11.00;;;2.47;;
3267;SDS011;1646;52.450;13.326;2023-05-10T15:38:04;5.10;;;3.03;;
3267;SDS011;1646;52.450;13.326;2023-05-10T15:43:02;4.53;;;2.77;;
3267;SDS011;1646;52.450;13.326;2023-05-10T15:48:03;3.53;;;2.50;;
3267;SDS011;1646;52.450;13.326;2023-05-10T15:53:01;4.63;;;2.70;;
3267;SDS011;1646;52.450;13.326;2023-05-10T15:57:59;2.93;;;2.63;;
3267;SDS011;1646;52.450;13.326;2023-05-10T16:02:58;9.33;;;2.80;;
3267;SDS011;1646;52.450;13.326;2023-05-10T16:07:58;5.33;;;3.70;;
3267;SDS011;1646;52.450;13.326;2023-05-10T16:12:57;3.10;;;2.80;;
3267;SDS011;1646;52.450;13.326;2023-05-10T16:17:55;6.40;;;3.53;;
3267;SDS011;1646;52.450;13.326;2023-05-10T16:22:54;6.63;;;4.37;;
3267;SDS011;1646;52.450;13.326;2023-05-10T16:27:54;7.40;;;4.50;;
3267;SDS011;1646;52.450;13.326;2023-05-10T16:32:52;6.10;;;4.87;;
3267;SDS011;1646;52.450;13.326;2023-05-10T16:37:50;5.70;;;4.30;;
3267;SDS011;1646;52.450;13.326;2023-05-10T16:42:49;5.53;;;4.93;;
3267;SDS011;1646;52.450;13.326;2023-05-10T16:47:48;7.50;;;5.00;;
3267;SDS011;1646;52.450;13.326;2023-05-10T16:52:46;16.73;;;5.77;;
3267;SDS011;1646;52.450;13.326;2023-05-10T16:57:44;7.70;;;5.00;;
3267;SDS011;1646;52.450;13.326;2023-05-10T17:02:43;7.37;;;5.30;;
3267;SDS011;1646;52.450;13.326;2023-05-10T17:07:43;8.23;;;4.80;;
3267;SDS011;1646;52.450;13.326;2023-05-10T17:12:41;6.40;;;5.60;;
3267;SDS011;1646;52.450;13.326;2023-05-10T17:17:39;7.50;;;4.90;;
3267;SDS011;1646;52.450;13.326;2023-05-10T17:22:37;7.57;;;4.93;;
3267;SDS011;1646;52.450;13.326;2023-05-10T17:27:37;7.73;;;4.90;;
3267;SDS011;1646;52.450;13.326;2023-05-10T17:32:35;6.40;;;5.30;;
3267;SDS011;1646;52.450;13.326;2023-05-10T17:37:33;10.47;;;5.50;;
3267;SDS011;1646;52.450;13.326;2023-05-10T17:42:32;10.43;;;5.23;;
3267;SDS011;1646;52.450;13.326;2023-05-10T17:47:31;6.60;;;5.07;;
3267;SDS011;1646;52.450;13.326;2023-05-10T17:52:29;7.40;;;4.67;;
3267;SDS011;1646;52.450;13.326;2023-05-10T17:57:29;9.03;;;4.53;;
3267;SDS011;1646;52.450;13.326;2023-05-10T18:02:27;13.87;;;5.30;;
3267;SDS011;1646;52.450;13.326;2023-05-10T18:07:27;12.60;;;4.50;;
3267;SDS011;1646;52.450;13.326;2023-05-10T18:12:25;7.07;;;5.10;;
3267;SDS011;1646;52.450;13.326;2023-05-10T18:17:23;6.43;;;4.90;;
3267;SDS011;1646;52.450;13.326;2023-05-10T18:22:22;12.90;;;5.60;;
3267;SDS011;1646;52.450;13.326;2023-05-10T18:27:21;6.80;;;5.60;;
3267;SDS011;1646;52.450;13.326;2023-05-10T18:32:19;7.23;;;5.47;;
3267;SDS011;1646;52.450;13.326;2023-05-10T18:37:19;9.23;;;5.50;;
3267;SDS011;1646;52.450;13.326;2023-05-10T18:42:17;11.67;;;4.90;;
3267;SDS011;1646;52.450;13.326;2023-05-10T18:47:17;13.90;;;5.53;;
3267;SDS011;1646;52.450;13.326;2023-05-10T18:52:15;5.50;;;4.90;;
3267;SDS011;1646;52.450;13.326;2023-05-10T18:57:13;13.77;;;6.03;;
3267;SDS011;1646;52.450;13.326;2023-05-10T19:02:11;6.83;;;5.10;;
3267;SDS011;1646;52.450;13.326;2023-05-10T19:07:11;6.47;;;4.93;;
3267;SDS011;1646;52.450;13.326;2023-05-10T19:12:09;10.73;;;5.30;;
3267;SDS011;1646;52.450;13.326;2023-05-10T19:17:07;9.83;;;4.93;;
3267;SDS011;1646;52.450;13.326;2023-05-10T19:22:05;8.70;;;5.30;;
3267;SDS011;1646;52.450;13.326;2023-05-10T19:27:05;7.17;;;4.83;;
3267;SDS011;1646;52.450;13.326;2023-05-10T19:32:04;6.60;;;5.50;;
3267;SDS011;1646;52.450;13.326;2023-05-10T19:37:03;11.63;;;4.83;;
3267;SDS011;1646;52.450;13.326;2023-05-10T19:42:01;7.03;;;5.60;;
3267;SDS011;1646;52.450;13.326;2023-05-10T19:47:02;6.37;;;4.90;;
3267;SDS011;1646;52.450;13.326;2023-05-10T19:52:04;10.87;;;7.30;;
3267;SDS011;1646;52.450;13.326;2023-05-10T19:57:03;8.50;;;6.03;;
3267;SDS011;1646;52.450;13.326;2023-05-10T20:02:03;7.17;;;5.80;;
3267;SDS011;1646;52.450;13.326;2023-05-10T20:07:01;12.40;;;5.33;;
3267;SDS011;1646;52.450;13.326;2023-05-10T20:11:59;12.30;;;6.13;;
3267;SDS011;1646;52.450;13.326;2023-05-10T20:16:57;14.40;;;6.47;;
3267;SDS011;1646;52.450;13.326;2023-05-10T20:21:57;8.60;;;6.80;;
3267;SDS011;1646;52.450;13.326;2023-05-10T20:26:55;8.10;;;6.17;;
3267;SDS011;1646;52.450;13.326;2023-05-10T20:31:54;8.60;;;6.47;;
3267;SDS011;1646;52.450;13.326;2023-05-10T20:36:52;11.97;;;6.57;;
3267;SDS011;1646;52.450;13.326;2023-05-10T20:41:52;9.40;;;6.47;;
3267;SDS011;1646;52.450;13.326;2023-05-10T20:46:50;8.73;;;6.40;;
3267;SDS011;1646;52.450;13.326;2023-05-10T20:51:48;7.83;;;5.93;;
3267;SDS011;1646;52.450;13.326;2023-05-10T20:56:47;8.77;;;5.80;;
3267;SDS011;1646;52.450;13.326;2023-05-10T21:01:47;9.20;;;5.77;;
3267;SDS011;1646;52.450;13.326;2023-05-10T21:06:45;9.53;;;7.10;;
3267;SDS011;1646;52.450;13.326;2023-05-10T21:11:43;5.93;;;5.23;;
3267;SDS011;1646;52.450;13.326;2023-05-10T21:16:41;8.17;;;6.10;;
3267;SDS011;1646;52.450;13.326;2023-05-10T21:21:41;5.90;;;5.27;;
3267;SDS011;1646;52.450;13.326;2023-05-10T21:26:39;8.70;;;6.23;;
3267;SDS011;1646;52.450;13.326;2023-05-10T21:31:38;7.47;;;5.70;;
3267;SDS011;1646;52.450;13.326;2023-05-10T21:36:36;10.50;;;5.50;;
3267;SDS011;1646;52.450;13.326;2023-05-10T21:41:36;9.67;;;5.70;;
3267;SDS011;1646;52.450;13.326;2023-05-10T21:46:34;6.07;;;5.47;;
3267;SDS011;1646;52.450;13.326;2023-05-10T21:51:32;7.70;;;5.03;;
3267;SDS011;1646;52.450;13.326;2023-05-10T21:56:31;8.20;;;4.50;;
3267;SDS011;1646;52.450;13.326;2023-05-10T22:01:30;6.07;;;5.23;;
3267;SDS011;1646;52.450;13.326;2023-05-10T22:06:28;7.60;;;4.50;;
3267;SDS011;1646;52.450;13.326;2023-05-10T22:11:27;5.63;;;4.90;;
3267;SDS011;1646;52.450;13.326;2023-05-10T22:16:25;6.20;;;4.43;;
3267;SDS011;1646;52.450;13.326;2023-05-10T22:21:25;8.13;;;3.93;;
3267;SDS011;1646;52.450;13.326;2023-05-10T22:26:23;4.87;;;4.40;;
3267;SDS011;1646;52.450;13.326;2023-05-10T22:31:22;5.80;;;4.40;;
3267;SDS011;1646;52.450;13.326;2023-05-10T22:36:20;5.90;;;4.70;;
3267;SDS011;1646;52.450;13.326;2023-05-10T22:41:20;5.10;;;4.60;;
3267;SDS011;1646;52.450;13.326;2023-05-10T22:46:18;4.63;;;4.10;;
3267;SDS011;1646;52.450;13.326;2023-05-10T22:51:16;5.33;;;4.53;;
3267;SDS011;1646;52.450;13.326;2023-05-10T22:56:15;7.40;;;4.03;;
3267;SDS011;1646;52.450;13.326;2023-05-10T23:01:14;4.30;;;3.90;;
3267;SDS011;1646;52.450;13.326;2023-05-10T23:06:13;7.10;;;4.70;;
3267;SDS011;1646;52.450;13.326;2023-05-10T23:11:11;6.90;;;4.90;;
3267;SDS011;1646;52.450;13.326;2023-05-10T23:16:09;5.57;;;4.60;;
3267;SDS011;1646;52.450;13.326;2023-05-10T23:21:09;6.33;;;5.07;;
3267;SDS011;1646;52.450;13.326;2023-05-10T23:26:07;7.40;;;6.20;;
3267;SDS011;1646;52.450;13.326;2023-05-10T23:31:06;5.90;;;4.87;;
3267;SDS011;1646;52.450;13.326;2023-05-10T23:36:04;5.40;;;4.90;;
3267;SDS011;1646;52.450;13.326;2023-05-10T23:41:04;12.20;;;5.20;;
3267;SDS011;1646;52.450;13.326;2023-05-10T23:46:02;6.40;;;5.67;;
3267;SDS011;1646;52.450;13.326;2023-05-10T23:51:02;6.90;;;6.20;;
3267;SDS011;1646;52.450;13.326;2023-05-10T23:56:00;8.90;;;5.30;;
